createdAt,value
2023-05-03T00:00:27.725Z,56.72
2023-05-03T00:02:54.775Z,56.21
2023-05-03T00:05:21.541Z,58.54
2023-05-03T00:07:48.201Z,60.70
2023-05-03T00:10:17.657Z,66.00
2023-05-03T00:12:44.483Z,65.22
2023-05-03T00:15:11.679Z,60.79
2023-05-03T00:17:38.786Z,56.12
2023-05-03T00:20:06.493Z,55.96
2023-05-03T00:22:33.225Z,58.00
2023-05-03T00:25:00.663Z,60.05
2023-05-03T00:27:28.825Z,64.81
2023-05-03T00:29:55.511Z,64.57
2023-05-03T00:32:22.923Z,62.21
2023-05-03T00:34:55.032Z,59.85
2023-05-03T00:37:22.817Z,56.93
2023-05-03T00:39:49.693Z,56.90
2023-05-03T00:42:16.899Z,59.03
2023-05-03T00:44:43.623Z,60.63
2023-05-03T00:47:10.990Z,65.33
2023-05-03T00:49:38.703Z,65.04
2023-05-03T00:52:06.725Z,62.15
2023-05-03T00:54:35.228Z,56.92
2023-05-03T00:57:04.468Z,56.89
2023-05-03T00:59:32.634Z,58.62
2023-05-03T01:01:59.293Z,60.59
2023-05-03T01:04:26.854Z,65.73
2023-05-03T01:06:59.490Z,65.18
2023-05-03T01:09:34.565Z,62.45
2023-05-03T01:12:19.519Z,61.07
2023-05-03T01:15:08.697Z,60.71
2023-05-03T01:17:57.927Z,56.20
2023-05-03T01:20:28.378Z,55.93
2023-05-03T01:22:58.346Z,57.78
2023-05-03T01:25:26.950Z,59.54
2023-05-03T01:27:53.497Z,63.75
2023-05-03T01:30:23.544Z,64.37
2023-05-03T01:33:16.945Z,61.61
2023-05-03T01:35:52.671Z,57.03
2023-05-03T01:38:21.425Z,56.40
2023-05-03T01:40:57.697Z,57.82
2023-05-03T01:43:26.285Z,59.12
2023-05-03T01:45:52.912Z,63.09
2023-05-03T01:48:19.880Z,65.26
2023-05-03T01:50:46.909Z,62.63
2023-05-03T01:53:13.665Z,59.68
2023-05-03T01:55:41.457Z,56.17
2023-05-03T01:58:08.019Z,56.93
2023-05-03T02:00:34.616Z,59.45
2023-05-03T02:03:01.222Z,61.50
2023-05-03T02:05:27.894Z,66.50
2023-05-03T02:07:54.571Z,66.01
2023-05-03T02:10:21.308Z,63.29
2023-05-03T02:12:48.203Z,60.32
2023-05-03T02:15:15.085Z,57.43
2023-05-03T02:17:43.845Z,58.17
2023-05-03T02:20:10.945Z,60.38
2023-05-03T02:22:37.541Z,64.75
2023-05-03T02:25:05.030Z,64.52
2023-05-03T02:27:31.682Z,62.37
2023-05-03T02:29:58.223Z,61.19
2023-05-03T02:32:25.993Z,61.06
2023-05-03T02:34:52.751Z,60.01
2023-05-03T02:37:19.676Z,56.76
2023-05-03T02:39:46.678Z,57.23
2023-05-03T02:42:13.472Z,58.79
2023-05-03T02:44:40.281Z,60.72
2023-05-03T02:47:08.396Z,64.37
2023-05-03T02:49:35.919Z,64.80
2023-05-03T02:52:02.503Z,62.81
2023-05-03T02:54:29.085Z,61.19
2023-05-03T02:56:56.698Z,59.76
2023-05-03T02:59:23.376Z,58.06
2023-05-03T03:01:50.865Z,57.87
2023-05-03T03:04:17.565Z,58.70
2023-05-03T03:06:44.161Z,59.76
2023-05-03T03:09:12.530Z,63.71
2023-05-03T03:11:39.769Z,64.53
2023-05-03T03:14:07.923Z,61.13
2023-05-03T03:16:35.349Z,57.10
2023-05-03T03:19:01.922Z,57.44
2023-05-03T03:21:29.819Z,59.24
2023-05-03T03:23:56.831Z,61.07
2023-05-03T03:26:23.551Z,64.72
2023-05-03T03:28:51.915Z,65.41
2023-05-03T03:31:18.564Z,64.01
2023-05-03T03:33:46.296Z,62.38
2023-05-03T03:36:14.555Z,61.84
2023-05-03T03:38:41.423Z,60.69
2023-05-03T03:41:08.615Z,58.43
2023-05-03T03:43:35.919Z,58.06
2023-05-03T03:46:03.471Z,58.84
2023-05-03T03:48:30.256Z,60.43
2023-05-03T03:50:56.930Z,64.77
2023-05-03T03:53:25.186Z,64.41
2023-05-03T03:55:51.733Z,62.08
2023-05-03T04:00:25.284Z,58.24
2023-05-03T04:02:56.247Z,57.44
2023-05-03T04:05:23.008Z,58.47
2023-05-03T04:07:49.965Z,59.95
2023-05-03T04:10:17.170Z,60.62
2023-05-03T04:12:43.995Z,63.77
2023-05-03T04:15:11.817Z,63.57
2023-05-03T04:17:39.546Z,61.44
2023-05-03T04:20:11.142Z,59.94
2023-05-03T04:22:40.252Z,56.64
2023-05-03T04:25:11.007Z,56.74
2023-05-03T04:27:38.259Z,58.34
2023-05-03T04:30:06.552Z,59.56
2023-05-03T04:32:37.774Z,60.24
2023-05-03T04:35:12.560Z,63.46
2023-05-03T04:37:42.763Z,62.72
2023-05-03T04:40:12.107Z,59.96
2023-05-03T04:42:42.496Z,57.07
2023-05-03T04:45:10.887Z,56.70
2023-05-03T04:47:37.663Z,58.20
2023-05-03T04:50:04.725Z,58.87
2023-05-03T04:52:31.873Z,59.35
2023-05-03T04:54:58.441Z,60.63
2023-05-03T04:57:26.058Z,60.35
2023-05-03T04:59:54.135Z,61.15
2023-05-03T05:02:21.569Z,62.94
2023-05-03T05:04:48.782Z,62.43
2023-05-03T05:07:15.586Z,59.78
2023-05-03T05:09:43.526Z,56.58
2023-05-03T05:12:11.501Z,55.63
2023-05-03T05:14:39.918Z,56.44
2023-05-03T05:17:07.951Z,56.74
2023-05-03T05:19:35.883Z,57.67
2023-05-03T05:22:02.670Z,57.65
2023-05-03T05:24:37.973Z,58.04
2023-05-03T05:27:05.096Z,58.08
2023-05-03T05:29:31.700Z,58.74
2023-05-03T05:31:59.775Z,59.09
2023-05-03T05:34:26.706Z,59.36
2023-05-03T05:36:54.640Z,59.52
2023-05-03T05:39:23.429Z,59.25
2023-05-03T05:41:50.601Z,59.38
2023-05-03T05:44:17.180Z,59.25
2023-05-03T05:46:44.891Z,59.46
2023-05-03T05:49:11.546Z,59.77
2023-05-03T05:51:39.448Z,60.38
2023-05-03T05:54:07.816Z,60.35
2023-05-03T05:56:34.726Z,59.89
2023-05-03T05:59:01.414Z,59.97
2023-05-03T06:01:28.583Z,59.12
2023-05-03T06:03:56.419Z,58.55
2023-05-03T06:06:23.228Z,59.29
2023-05-03T06:08:51.492Z,59.58
2023-05-03T06:11:18.235Z,59.71
2023-05-03T06:13:45.135Z,58.85
2023-05-03T06:16:14.044Z,57.52
2023-05-03T06:18:40.690Z,56.13
2023-05-03T06:21:07.671Z,55.83
2023-05-03T06:23:35.350Z,55.48
2023-05-03T06:26:02.773Z,55.60
2023-05-03T06:28:29.708Z,56.45
2023-05-03T06:30:56.380Z,55.40
2023-05-03T06:33:23.395Z,54.33
2023-05-03T06:35:51.687Z,53.55
2023-05-03T06:38:19.051Z,52.39
2023-05-03T06:40:46.531Z,50.16
2023-05-03T06:43:14.233Z,44.86
2023-05-03T06:45:53.465Z,40.96
2023-05-03T06:48:21.313Z,38.11
2023-05-03T06:50:48.369Z,37.53
2023-05-03T06:53:15.150Z,33.43
2023-05-03T06:55:45.504Z,34.96
2023-05-03T06:58:12.172Z,30.88
2023-05-03T07:00:41.716Z,27.54
2023-05-03T07:03:08.470Z,23.91
2023-05-03T07:05:35.193Z,23.27
2023-05-03T07:08:01.799Z,22.71
2023-05-03T07:10:31.274Z,21.52
2023-05-03T07:12:58.421Z,18.95
2023-05-03T07:15:25.028Z,19.35
2023-05-03T07:17:51.664Z,18.32
2023-05-03T07:20:18.432Z,17.46
2023-05-03T07:22:45.157Z,17.43
2023-05-03T07:25:14.243Z,16.87
2023-05-03T07:27:41.011Z,16.63
2023-05-03T07:30:08.209Z,17.12
2023-05-03T07:32:34.914Z,16.95
2023-05-03T07:35:01.575Z,15.26
2023-05-03T07:37:28.174Z,15.11
2023-05-03T07:39:54.780Z,15.87
2023-05-03T07:42:21.308Z,14.71
2023-05-03T07:44:47.940Z,13.96
2023-05-03T07:47:14.479Z,14.08
2023-05-03T07:49:41.190Z,14.93
2023-05-03T07:52:07.836Z,14.79
2023-05-03T07:54:34.472Z,15.25
2023-05-03T07:57:01.358Z,15.52
2023-05-03T07:59:27.942Z,15.50
2023-05-03T08:01:54.559Z,15.84
2023-05-03T08:04:21.838Z,16.46
2023-05-03T08:06:49.163Z,16.41
2023-05-03T08:09:15.802Z,16.61
2023-05-03T08:11:44.098Z,16.11
2023-05-03T08:14:11.395Z,15.98
2023-05-03T08:16:38.789Z,16.55
2023-05-03T08:19:05.395Z,16.38
2023-05-03T08:21:33.532Z,15.73
2023-05-03T08:24:00.893Z,14.80
2023-05-03T08:26:29.807Z,14.06
2023-05-03T08:28:56.613Z,13.51
2023-05-03T08:31:23.373Z,13.86
2023-05-03T08:33:50.053Z,13.69
2023-05-03T08:36:16.830Z,14.50
2023-05-03T08:38:43.466Z,12.78
2023-05-03T08:41:26.142Z,13.48
2023-05-03T08:43:54.510Z,14.02
2023-05-03T08:46:21.590Z,15.49
2023-05-03T08:48:49.750Z,16.75
2023-05-03T08:51:18.129Z,17.14
2023-05-03T08:53:48.529Z,16.19
2023-05-03T08:56:34.751Z,15.47
2023-05-03T08:59:07.506Z,14.88
2023-05-03T09:01:37.262Z,14.24
2023-05-03T09:04:04.555Z,14.54
2023-05-03T09:06:33.305Z,14.79
2023-05-03T09:09:01.756Z,15.56
2023-05-03T09:11:30.962Z,16.03
2023-05-03T09:14:18.249Z,15.57
2023-05-03T09:16:47.285Z,14.95
2023-05-03T09:19:14.890Z,15.33
2023-05-03T09:21:44.095Z,14.78
2023-05-03T09:24:15.961Z,14.11
2023-05-03T09:26:43.614Z,14.56
2023-05-03T09:29:10.273Z,13.47
2023-05-03T09:31:37.930Z,12.65
2023-05-03T09:34:22.961Z,11.74
2023-05-03T09:36:49.619Z,11.69
2023-05-03T09:39:19.848Z,10.70
2023-05-03T09:41:47.100Z,10.50
2023-05-03T09:44:13.856Z,10.13
2023-05-03T09:47:00.582Z,9.60
2023-05-03T09:49:27.504Z,10.44
2023-05-03T09:51:55.100Z,9.96
2023-05-03T09:54:25.682Z,10.09
2023-05-03T09:56:55.419Z,9.80
2023-05-03T09:59:22.007Z,9.50
2023-05-03T10:01:49.054Z,10.04
2023-05-03T10:04:19.812Z,11.47
2023-05-03T10:06:49.352Z,12.18
2023-05-03T10:09:20.838Z,11.56
2023-05-03T10:11:53.266Z,11.36
2023-05-03T10:14:22.981Z,10.68
2023-05-03T10:16:53.305Z,10.55
2023-05-03T10:19:27.495Z,9.58
2023-05-03T10:22:07.738Z,9.79
2023-05-03T10:24:36.183Z,9.44
2023-05-03T10:27:07.136Z,8.95
2023-05-03T10:29:34.493Z,9.69
2023-05-03T10:32:02.331Z,9.74
2023-05-03T10:34:33.965Z,10.56
2023-05-03T10:37:09.693Z,11.57
2023-05-03T10:39:37.229Z,11.64
2023-05-03T10:42:08.739Z,11.67
2023-05-03T10:44:51.282Z,11.36
2023-05-03T10:47:23.634Z,10.49
2023-05-03T10:50:16.232Z,10.57
2023-05-03T10:52:42.976Z,10.90
2023-05-03T10:55:10.740Z,11.52
2023-05-03T10:57:40.327Z,12.37
2023-05-03T11:00:36.990Z,12.29
2023-05-03T11:03:31.449Z,12.01
2023-05-03T11:05:58.274Z,11.35
2023-05-03T11:08:25.994Z,11.15
2023-05-03T11:11:00.893Z,10.67
2023-05-03T11:13:28.055Z,11.31
2023-05-03T11:15:56.367Z,11.55
2023-05-03T11:18:27.586Z,11.74
2023-05-03T11:20:54.439Z,12.10
2023-05-03T11:23:25.513Z,12.27
2023-05-03T11:25:52.536Z,12.37
2023-05-03T11:28:19.157Z,12.10
2023-05-03T11:30:46.964Z,11.35
2023-05-03T11:33:13.659Z,11.49
2023-05-03T11:35:40.592Z,12.37
2023-05-03T11:38:07.210Z,13.10
2023-05-03T11:40:33.833Z,13.82
2023-05-03T11:43:01.023Z,13.53
2023-05-03T11:45:45.994Z,13.43
2023-05-03T11:48:14.099Z,13.35
2023-05-03T11:50:47.071Z,12.90
2023-05-03T11:53:15.356Z,12.28
2023-05-03T11:55:43.847Z,13.12
2023-05-03T11:58:26.797Z,13.66
2023-05-03T12:00:55.293Z,14.06
2023-05-03T12:03:27.636Z,13.79
2023-05-03T12:05:57.505Z,13.52
2023-05-03T12:08:35.629Z,12.85
2023-05-03T12:11:07.477Z,13.03
2023-05-03T12:13:39.853Z,13.34
2023-05-03T12:18:57.477Z,13.40
2023-05-03T12:23:56.963Z,13.42
2023-05-03T12:26:25.388Z,13.46
2023-05-03T12:28:55.956Z,13.42
2023-05-03T12:31:23.696Z,13.58
2023-05-03T12:34:12.893Z,13.43
2023-05-03T12:36:38.492Z,13.79
2023-05-03T12:39:10.139Z,14.54
2023-05-03T12:44:10.328Z,14.35
2023-05-03T12:46:38.936Z,15.93
2023-05-03T12:49:07.930Z,16.19
2023-05-03T12:51:35.636Z,16.80
2023-05-03T12:54:03.658Z,17.28
2023-05-03T12:56:32.563Z,18.45
2023-05-03T12:59:26.838Z,18.79
2023-05-03T13:03:08.072Z,20.02
2023-05-03T13:04:56.768Z,19.23
2023-05-03T13:07:28.212Z,18.73
2023-05-03T13:12:27.360Z,17.38
2023-05-03T13:14:56.645Z,17.68
2023-05-03T13:17:23.625Z,18.36
2023-05-03T13:19:51.490Z,19.38
2023-05-03T13:22:18.547Z,19.63
2023-05-03T13:24:47.030Z,19.70
2023-05-03T13:27:14.509Z,20.53
2023-05-03T13:29:41.408Z,21.24
2023-05-03T13:32:08.556Z,21.34
2023-05-03T13:34:35.625Z,22.16
2023-05-03T13:37:04.317Z,23.34
2023-05-03T13:39:32.065Z,24.38
2023-05-03T13:41:59.073Z,24.29
2023-05-03T13:44:26.339Z,24.20
2023-05-03T13:46:53.512Z,25.04
2023-05-03T13:49:20.705Z,24.97
2023-05-03T13:51:48.188Z,24.49
2023-05-03T13:54:15.099Z,24.48
2023-05-03T13:56:43.108Z,24.84
2023-05-03T13:59:13.931Z,23.80
2023-05-03T14:01:41.261Z,23.28
2023-05-03T14:04:08.209Z,24.05
2023-05-03T14:06:34.981Z,23.93
2023-05-03T14:09:02.834Z,23.38
2023-05-03T14:11:30.848Z,22.29
2023-05-03T14:13:58.881Z,23.40
2023-05-03T14:18:56.981Z,23.34
2023-05-03T14:21:23.849Z,23.89
2023-05-03T14:23:51.155Z,24.20
2023-05-03T14:26:19.556Z,24.15
2023-05-03T14:28:46.587Z,25.05
2023-05-03T14:31:13.613Z,27.60
2023-05-03T14:33:40.293Z,27.67
2023-05-03T14:36:10.837Z,28.31
2023-05-03T14:38:37.604Z,28.72
2023-05-03T14:41:04.485Z,29.35
2023-05-03T14:43:31.558Z,28.87
2023-05-03T14:45:58.304Z,29.74
2023-05-03T14:48:24.896Z,27.73
2023-05-03T14:50:52.482Z,26.31
2023-05-03T14:53:19.328Z,26.40
2023-05-03T14:55:46.763Z,25.75
2023-05-03T14:58:13.635Z,27.15
2023-05-03T15:00:41.493Z,26.87
2023-05-03T15:03:13.119Z,27.93
2023-05-03T15:05:46.887Z,28.67
2023-05-03T15:08:15.469Z,27.55
2023-05-03T15:10:44.520Z,27.62
2023-05-03T15:13:12.612Z,27.98
2023-05-03T15:15:40.767Z,27.38
2023-05-03T15:18:11.435Z,27.15
2023-05-03T15:20:39.140Z,26.68
2023-05-03T15:23:06.318Z,27.03
2023-05-03T15:25:33.098Z,27.50
2023-05-03T15:28:03.716Z,27.53
2023-05-03T15:30:32.187Z,27.50
2023-05-03T15:32:59.247Z,27.43
2023-05-03T15:35:26.021Z,27.90
2023-05-03T15:37:52.750Z,28.59
2023-05-03T15:40:23.736Z,29.33
2023-05-03T15:42:52.003Z,30.34
2023-05-03T15:45:18.991Z,30.89
2023-05-03T15:47:46.364Z,31.43
2023-05-03T15:50:13.409Z,31.97
2023-05-03T15:52:40.543Z,31.46
2023-05-03T15:55:09.477Z,30.71
2023-05-03T15:57:36.184Z,31.85
2023-05-03T16:00:13.554Z,31.11
2023-05-03T16:02:40.669Z,31.81
2023-05-03T16:05:07.813Z,31.30
2023-05-03T16:07:34.561Z,31.01
2023-05-03T16:10:01.580Z,32.09
2023-05-03T16:12:28.500Z,32.35
2023-05-03T16:14:55.678Z,30.68
2023-05-03T16:17:22.450Z,30.29
2023-05-03T16:19:49.057Z,30.07
2023-05-03T16:22:16.932Z,29.67
2023-05-03T16:24:43.556Z,29.89
2023-05-03T16:27:10.296Z,30.34
2023-05-03T16:29:37.741Z,30.57
2023-05-03T16:32:06.435Z,30.66
2023-05-03T16:34:33.048Z,30.55
2023-05-03T16:37:00.902Z,30.36
2023-05-03T16:39:27.532Z,30.84
2023-05-03T16:41:54.334Z,31.30
2023-05-03T16:44:21.331Z,30.96
2023-05-03T16:46:48.890Z,31.09
2023-05-03T16:49:16.129Z,31.30
2023-05-03T16:51:43.263Z,32.29
2023-05-03T16:54:10.045Z,32.59
2023-05-03T16:56:37.486Z,32.57
2023-05-03T16:59:04.179Z,33.06
2023-05-03T17:01:31.009Z,33.44
2023-05-03T17:03:57.754Z,32.95
2023-05-03T17:06:24.376Z,33.34
2023-05-03T17:08:50.966Z,33.90
2023-05-03T17:11:17.923Z,33.77
2023-05-03T17:13:44.609Z,34.41
2023-05-03T17:16:15.295Z,34.32
2023-05-03T17:18:42.209Z,34.34
2023-05-03T17:21:10.092Z,34.41
2023-05-03T17:23:38.765Z,34.28
2023-05-03T17:26:08.670Z,34.31
2023-05-03T17:28:35.850Z,34.69
2023-05-03T17:31:03.416Z,34.19
2023-05-03T17:33:30.103Z,34.96
2023-05-03T17:35:57.080Z,35.18
2023-05-03T17:38:23.939Z,35.51
2023-05-03T17:40:50.845Z,35.79
2023-05-03T17:43:17.712Z,36.05
2023-05-03T17:45:47.501Z,36.63
2023-05-03T17:48:14.729Z,37.20
2023-05-03T17:50:43.350Z,37.36
2023-05-03T17:53:10.343Z,38.18
2023-05-03T17:55:40.971Z,37.92
2023-05-03T17:58:09.426Z,39.08
2023-05-03T18:00:36.217Z,39.24
2023-05-03T18:03:03.152Z,38.70
2023-05-03T18:05:36.811Z,39.14
2023-05-03T18:08:03.789Z,39.75
2023-05-03T18:10:31.204Z,40.41
2023-05-03T18:12:58.259Z,40.24
2023-05-03T18:15:25.279Z,40.59
2023-05-03T18:17:52.954Z,42.49
2023-05-03T18:20:19.891Z,45.83
2023-05-03T18:22:46.524Z,45.58
2023-05-03T18:25:13.688Z,45.88
2023-05-03T18:27:40.381Z,47.00
2023-05-03T18:30:07.804Z,46.86
2023-05-03T18:32:34.853Z,47.99
2023-05-03T18:35:02.526Z,48.53
2023-05-03T18:37:29.556Z,50.84
2023-05-03T18:39:56.345Z,51.77
2023-05-03T18:42:23.080Z,51.29
2023-05-03T18:44:49.760Z,51.70
2023-05-03T18:47:20.617Z,51.45
2023-05-03T18:49:52.540Z,51.40
2023-05-03T18:52:23.532Z,52.13
2023-05-03T18:54:50.849Z,52.88
2023-05-03T18:57:17.693Z,53.14
2023-05-03T18:59:56.588Z,53.55
2023-05-03T19:02:25.324Z,53.69
2023-05-03T19:04:52.725Z,55.38
2023-05-03T19:07:19.719Z,56.38
2023-05-03T19:09:46.461Z,56.45
2023-05-03T19:12:13.741Z,56.56
2023-05-03T19:14:43.341Z,57.33
2023-05-03T19:17:10.167Z,57.57
2023-05-03T19:19:36.924Z,57.91
2023-05-03T19:22:03.677Z,58.62
2023-05-03T19:24:30.501Z,58.58
2023-05-03T19:26:57.402Z,59.07
2023-05-03T19:29:23.998Z,59.63
2023-05-03T19:31:50.585Z,62.46
2023-05-03T19:34:17.812Z,64.81
2023-05-03T19:36:44.534Z,64.19
2023-05-03T19:39:14.181Z,61.57
2023-05-03T19:41:41.560Z,58.05
2023-05-03T19:44:09.259Z,56.23
2023-05-03T19:46:36.493Z,56.76
2023-05-03T19:49:03.237Z,58.15
2023-05-03T19:51:30.062Z,59.75
2023-05-03T19:53:57.689Z,59.59
2023-05-03T19:56:25.154Z,62.18
2023-05-03T19:58:51.854Z,64.79
2023-05-03T20:01:18.754Z,63.33
2023-05-03T20:03:46.801Z,62.24
2023-05-03T20:06:14.320Z,60.51
2023-05-03T20:08:41.273Z,57.94
2023-05-03T20:11:08.050Z,56.73
2023-05-03T20:13:34.939Z,57.14
2023-05-03T20:16:05.353Z,57.84
2023-05-03T20:18:32.050Z,59.26
2023-05-03T20:20:58.826Z,60.06
2023-05-03T20:23:26.915Z,63.05
2023-05-03T20:25:53.766Z,65.35
2023-05-03T20:28:20.585Z,64.38
2023-05-03T20:30:47.667Z,63.41
2023-05-03T20:33:14.796Z,62.27
2023-05-03T20:35:41.620Z,60.20
2023-05-03T20:38:08.337Z,58.09
2023-05-03T20:40:36.263Z,57.22
2023-05-03T20:43:06.194Z,58.85
2023-05-03T20:45:32.982Z,63.81
2023-05-03T20:47:59.718Z,66.03
2023-05-03T20:50:26.483Z,63.73
2023-05-03T20:52:55.008Z,61.87
2023-05-03T20:55:21.783Z,60.82
2023-05-03T20:57:48.684Z,60.20
2023-05-03T21:00:16.005Z,59.96
2023-05-03T21:02:43.443Z,58.28
2023-05-03T21:05:11.465Z,58.08
2023-05-03T21:07:38.754Z,58.54
2023-05-03T21:10:07.673Z,59.68
2023-05-03T21:12:34.921Z,62.70
2023-05-03T21:15:03.127Z,65.17
2023-05-03T21:17:29.837Z,64.48
2023-05-03T21:19:57.172Z,63.74
2023-05-03T21:22:24.077Z,62.61
2023-05-03T21:24:51.138Z,61.76
2023-05-03T21:27:19.374Z,61.46
2023-05-03T21:29:46.508Z,61.12
2023-05-03T21:32:13.469Z,61.14
2023-05-03T21:34:40.160Z,61.02
2023-05-03T21:37:07.450Z,60.98
2023-05-03T21:39:34.189Z,60.66
2023-05-03T21:42:00.977Z,60.07
2023-05-03T21:44:27.823Z,60.07
2023-05-03T21:46:54.535Z,58.60
2023-05-03T21:49:21.559Z,57.98
2023-05-03T21:51:48.320Z,58.79
2023-05-03T21:54:17.159Z,59.94
2023-05-03T21:56:43.882Z,63.08
2023-05-03T21:59:10.505Z,65.74
2023-05-03T22:01:38.240Z,65.73
2023-05-03T22:04:06.206Z,65.64
2023-05-03T22:06:33.248Z,64.70
2023-05-03T22:08:59.827Z,63.58
2023-05-03T22:11:26.419Z,63.15
2023-05-03T22:14:06.813Z,62.62
2023-05-03T22:16:38.944Z,61.93
2023-05-03T22:19:05.704Z,61.37
2023-05-03T22:21:32.608Z,61.31
2023-05-03T22:23:59.263Z,61.15
2023-05-03T22:26:26.075Z,61.95
2023-05-03T22:28:52.637Z,62.16
2023-05-03T22:31:19.595Z,62.01
2023-05-03T22:33:47.229Z,62.13
2023-05-03T22:36:14.658Z,62.33
2023-05-03T22:38:43.084Z,62.29
2023-05-03T22:41:10.315Z,62.41
2023-05-03T22:43:37.062Z,62.49
2023-05-03T22:46:04.149Z,61.85
2023-05-03T22:48:32.558Z,61.65
2023-05-03T22:51:00.180Z,62.09
2023-05-03T22:53:26.841Z,61.29
2023-05-03T22:56:01.542Z,61.46
2023-05-03T22:58:28.656Z,61.83
2023-05-03T23:00:56.546Z,62.31
2023-05-03T23:03:23.426Z,62.53
2023-05-03T23:05:53.301Z,62.56
2023-05-03T23:08:20.262Z,62.79
2023-05-03T23:10:47.283Z,63.19
2023-05-03T23:13:13.908Z,62.54
2023-05-03T23:15:40.525Z,62.24
2023-05-03T23:18:09.649Z,62.62
2023-05-03T23:20:36.655Z,63.05
2023-05-03T23:23:03.286Z,63.05
2023-05-03T23:25:29.955Z,63.09
2023-05-03T23:27:56.702Z,62.82
2023-05-03T23:30:24.005Z,62.63
2023-05-03T23:32:51.235Z,62.61
2023-05-03T23:35:18.533Z,62.66
2023-05-03T23:37:45.096Z,62.68
2023-05-03T23:40:13.095Z,62.28
2023-05-03T23:42:41.479Z,61.73
2023-05-03T23:45:09.801Z,61.36
2023-05-03T23:47:37.040Z,61.37
2023-05-03T23:50:05.115Z,61.43
2023-05-03T23:52:31.988Z,61.26
2023-05-03T23:54:58.565Z,61.00
2023-05-03T23:57:25.233Z,60.75
2023-05-03T23:59:51.833Z,60.68
